createdAt,value
2022-09-10T00:02:36.336Z,14.68
2022-09-10T00:07:40.156Z,13.70
2022-09-10T00:12:43.905Z,11.40
2022-09-10T00:17:49.007Z,13.57
2022-09-10T00:22:53.928Z,17.45
2022-09-10T00:27:57.723Z,16.70
2022-09-10T00:33:02.892Z,15.55
2022-09-10T00:38:07.032Z,20.40
2022-09-10T00:43:13.665Z,19.12
2022-09-10T00:48:23.603Z,21.37
2022-09-10T00:53:29.614Z,22.02
2022-09-10T00:58:33.765Z,22.58
2022-09-10T01:03:40.542Z,22.10
2022-09-10T01:08:44.206Z,25.98
2022-09-10T01:14:05.307Z,27.10
2022-09-10T01:19:32.801Z,26.42
2022-09-10T01:24:51.774Z,21.98
2022-09-10T01:30:03.653Z,20.75
2022-09-10T01:35:17.886Z,21.58
2022-09-10T01:40:29.572Z,29.27
2022-09-10T01:45:45.968Z,25.67
2022-09-10T01:51:04.427Z,32.33
2022-09-10T01:56:20.494Z,31.92
2022-09-10T02:01:30.396Z,28.35
2022-09-10T02:06:38.900Z,20.85
2022-09-10T02:11:48.767Z,22.65
2022-09-10T02:16:58.750Z,29.10
2022-09-10T02:22:03.076Z,30.58
2022-09-10T02:27:07.678Z,38.10
2022-09-10T02:32:13.404Z,37.58
2022-09-10T02:37:17.458Z,26.45
2022-09-10T02:42:22.203Z,33.75
2022-09-10T02:47:28.870Z,31.25
2022-09-10T02:52:33.257Z,34.15
2022-09-10T02:57:37.372Z,37.25
2022-09-10T03:02:42.386Z,32.70
2022-09-10T03:07:48.234Z,32.38
2022-09-10T03:12:54.351Z,32.15
2022-09-10T03:17:59.432Z,40.72
2022-09-10T03:23:03.517Z,34.22
2022-09-10T03:28:07.372Z,42.88
2022-09-10T03:33:13.512Z,38.92
2022-09-10T03:38:17.443Z,40.30
2022-09-10T03:43:22.947Z,39.47
2022-09-10T03:48:28.149Z,42.62
2022-09-10T03:53:32.238Z,39.90
2022-09-10T03:58:37.434Z,48.35
2022-09-10T04:03:43.180Z,43.87
2022-09-10T04:08:50.484Z,36.78
2022-09-10T04:13:56.739Z,41.67
2022-09-10T04:19:02.043Z,39.33
2022-09-10T04:24:09.681Z,38.72
2022-09-10T04:29:13.957Z,41.97
2022-09-10T04:34:19.404Z,41.15
2022-09-10T04:39:23.174Z,41.92
2022-09-10T04:44:27.850Z,38.08
2022-09-10T04:49:33.086Z,46.15
2022-09-10T04:54:37.420Z,42.17
2022-09-10T04:59:41.271Z,47.30
2022-09-10T05:04:46.561Z,50.05
2022-09-10T05:09:50.482Z,43.65
2022-09-10T05:14:55.098Z,46.55
2022-09-10T05:20:00.282Z,46.15
2022-09-10T05:25:06.671Z,52.62
2022-09-10T05:30:11.295Z,43.70
2022-09-10T05:35:16.639Z,42.40
2022-09-10T05:40:21.854Z,35.20
2022-09-10T05:45:26.885Z,32.63
2022-09-10T05:50:32.825Z,33.95
2022-09-10T05:55:36.750Z,32.88
2022-09-10T06:00:44.058Z,41.55
2022-09-10T06:05:55.758Z,48.30
2022-09-10T06:11:02.561Z,38.40
2022-09-10T06:16:07.806Z,38.63
2022-09-10T06:21:16.163Z,34.30
2022-09-10T06:26:20.408Z,39.30
2022-09-10T06:31:25.141Z,36.42
2022-09-10T06:36:31.319Z,33.85
2022-09-10T06:41:36.952Z,32.92
2022-09-10T06:47:19.654Z,30.52
2022-09-10T06:52:08.308Z,28.15
2022-09-10T06:57:13.913Z,30.65
2022-09-10T07:02:18.124Z,25.67
2022-09-10T07:07:23.728Z,27.25
2022-09-10T07:12:27.516Z,31.23
2022-09-10T07:17:35.457Z,29.67
2022-09-10T07:22:42.667Z,25.70
2022-09-10T07:27:47.122Z,29.35
2022-09-10T07:32:51.136Z,24.60
2022-09-10T07:37:59.107Z,23.60
2022-09-10T07:43:03.919Z,23.08
2022-09-10T07:48:07.706Z,23.98
2022-09-10T07:53:13.689Z,21.73
2022-09-10T07:58:17.431Z,21.35
2022-09-10T08:03:22.371Z,21.77
2022-09-10T08:08:31.632Z,25.12
2022-09-10T08:13:37.395Z,20.88
2022-09-10T08:18:41.979Z,19.05
2022-09-10T08:23:51.846Z,20.35
2022-09-10T08:28:57.941Z,20.20
2022-09-10T08:34:03.519Z,16.62
2022-09-10T08:39:12.019Z,12.75
2022-09-10T08:44:27.779Z,19.87
2022-09-10T08:49:37.760Z,17.73
2022-09-10T08:54:50.145Z,17.10
2022-09-10T08:59:57.557Z,23.23
2022-09-10T09:10:21.711Z,15.43
2022-09-10T09:15:32.108Z,17.95
2022-09-10T09:20:44.914Z,12.98
2022-09-10T09:25:52.663Z,12.98
2022-09-10T09:36:05.899Z,12.15
2022-09-10T09:41:19.495Z,14.70
2022-09-10T09:46:24.748Z,11.95
2022-09-10T09:51:35.489Z,13.35
2022-09-10T09:56:45.594Z,7.15
2022-09-10T10:01:49.438Z,12.82
2022-09-10T10:06:57.773Z,13.13
2022-09-10T10:17:29.670Z,6.12
2022-09-10T10:22:33.804Z,10.10
2022-09-10T10:27:45.266Z,12.82
2022-09-10T10:32:53.817Z,12.98
2022-09-10T10:38:21.066Z,8.20
2022-09-10T10:43:39.439Z,9.90
2022-09-10T10:49:03.546Z,7.00
2022-09-10T10:54:25.740Z,15.05
2022-09-10T10:59:47.205Z,9.57
2022-09-10T11:04:52.698Z,7.60
2022-09-10T11:10:02.521Z,10.77
2022-09-10T11:15:21.890Z,11.85
2022-09-10T11:20:30.462Z,10.07
2022-09-10T11:25:40.619Z,7.82
2022-09-10T11:30:51.490Z,8.20
2022-09-10T11:36:01.323Z,5.60
2022-09-10T11:41:10.481Z,5.95
2022-09-10T11:46:19.581Z,1.92
2022-09-10T11:51:28.094Z,3.97
2022-09-10T11:56:53.000Z,3.33
2022-09-10T12:02:27.013Z,2.00
2022-09-10T12:07:46.931Z,2.30
2022-09-10T12:12:53.261Z,2.75
2022-09-10T12:18:02.390Z,2.10
2022-09-10T12:23:07.240Z,1.80
2022-09-10T12:28:52.001Z,1.55
2022-09-10T12:34:19.520Z,7.97
2022-09-10T12:44:49.760Z,5.90
2022-09-10T12:49:57.737Z,6.10
2022-09-10T12:55:13.363Z,7.40
2022-09-10T13:00:22.954Z,3.58
2022-09-10T13:05:34.681Z,3.12
2022-09-10T13:10:39.914Z,3.55
2022-09-10T13:15:52.075Z,4.68
2022-09-10T13:20:58.726Z,3.33
2022-09-10T13:26:49.207Z,4.35
2022-09-10T13:32:01.460Z,2.50
2022-09-10T13:37:27.818Z,3.80
2022-09-10T13:42:56.312Z,4.93
2022-09-10T13:48:02.697Z,3.92
2022-09-10T13:53:10.742Z,3.90
2022-09-10T13:58:17.524Z,4.47
2022-09-10T14:03:23.952Z,4.85
2022-09-10T14:08:32.608Z,10.90
2022-09-10T14:13:40.239Z,5.75
2022-09-10T14:18:48.519Z,9.15
2022-09-10T14:23:56.211Z,9.88
2022-09-10T14:29:01.633Z,4.75
2022-09-10T14:34:41.734Z,5.07
2022-09-10T14:39:47.419Z,4.50
2022-09-10T14:44:51.184Z,4.22
2022-09-10T14:49:55.129Z,2.90
2022-09-10T14:55:00.132Z,3.75
2022-09-10T15:00:04.071Z,3.08
2022-09-10T15:05:14.290Z,5.18
2022-09-10T15:10:19.498Z,3.12
2022-09-10T15:15:25.070Z,4.65
2022-09-10T15:20:28.837Z,4.72
2022-09-10T15:25:38.952Z,5.93
2022-09-10T15:30:42.722Z,3.22
2022-09-10T15:35:47.977Z,5.15
2022-09-10T15:40:56.432Z,3.78
2022-09-10T15:46:02.994Z,5.05
2022-09-10T15:51:09.107Z,2.63
2022-09-10T15:56:15.060Z,2.40
2022-09-10T16:01:19.297Z,2.70
2022-09-10T16:06:24.095Z,2.40
2022-09-10T16:11:31.122Z,6.47
2022-09-10T16:16:37.260Z,3.30
2022-09-10T16:21:41.303Z,7.60
2022-09-10T16:26:47.976Z,5.40
2022-09-10T16:31:52.180Z,4.37
2022-09-10T16:36:55.909Z,3.87
2022-09-10T16:42:01.054Z,3.45
2022-09-10T16:47:04.933Z,3.28
2022-09-10T16:52:09.209Z,2.92
2022-09-10T16:57:14.265Z,4.97
2022-09-10T17:02:18.029Z,4.93
2022-09-10T17:07:21.810Z,5.00
2022-09-10T17:12:27.297Z,4.82
2022-09-10T17:17:31.026Z,3.72
2022-09-10T17:22:35.289Z,4.43
2022-09-10T17:27:40.452Z,3.67
2022-09-10T17:32:44.153Z,3.70
2022-09-10T17:37:47.961Z,4.85
2022-09-10T17:42:53.763Z,6.35
2022-09-10T17:47:57.451Z,5.37
2022-09-10T17:53:02.157Z,6.00
2022-09-10T17:58:07.328Z,5.43
2022-09-10T18:03:14.390Z,6.37
2022-09-10T18:08:19.286Z,7.28
2022-09-10T18:13:24.492Z,7.05
2022-09-10T18:18:28.329Z,3.65
2022-09-10T18:23:32.098Z,3.33
2022-09-10T18:28:37.151Z,3.50
2022-09-10T18:33:42.069Z,4.97
2022-09-10T18:38:47.180Z,4.25
2022-09-10T18:43:54.009Z,5.18
2022-09-10T18:48:58.232Z,8.68
2022-09-10T18:54:04.103Z,6.05
2022-09-10T18:59:13.105Z,7.07
2022-09-10T19:04:20.144Z,7.90
2022-09-10T19:09:25.711Z,6.07
2022-09-10T19:14:32.499Z,8.98
2022-09-10T19:19:36.392Z,7.68
2022-09-10T19:24:56.164Z,8.40
2022-09-10T19:30:01.399Z,7.03
2022-09-10T19:35:05.668Z,6.53
2022-09-10T19:40:11.904Z,9.60
2022-09-10T19:45:17.134Z,9.25
2022-09-10T19:50:23.382Z,7.53
2022-09-10T19:55:27.391Z,8.00
2022-09-10T20:00:46.490Z,9.80
2022-09-10T20:05:50.888Z,11.55
2022-09-10T20:10:54.636Z,7.50
2022-09-10T20:16:02.676Z,8.07
2022-09-10T20:21:11.993Z,8.98
2022-09-10T20:26:18.080Z,9.60
2022-09-10T20:31:24.335Z,13.65
2022-09-10T20:36:29.393Z,7.93
2022-09-10T20:41:33.146Z,8.60
2022-09-10T20:46:38.369Z,13.85
2022-09-10T20:51:42.647Z,8.82
2022-09-10T20:56:46.860Z,9.25
2022-09-10T21:01:52.317Z,10.77
2022-09-10T21:06:56.202Z,10.85
2022-09-10T21:11:59.925Z,12.90
2022-09-10T21:17:05.044Z,17.20
2022-09-10T21:22:08.728Z,17.75
2022-09-10T21:27:12.434Z,13.25
2022-09-10T21:32:17.810Z,14.93
2022-09-10T21:37:21.554Z,14.32
2022-09-10T21:42:25.237Z,14.77
2022-09-10T21:47:30.432Z,16.75
2022-09-10T21:52:34.133Z,14.18
2022-09-10T21:57:37.890Z,14.20
2022-09-10T22:02:43.113Z,14.45
2022-09-10T22:07:47.032Z,36.47
2022-09-10T22:12:50.723Z,14.82
2022-09-10T22:17:55.988Z,14.05
2022-09-10T22:22:59.716Z,17.25
2022-09-10T22:28:10.062Z,16.87
2022-09-10T22:33:15.277Z,20.30
2022-09-10T22:38:19.699Z,15.20
2022-09-10T22:43:25.019Z,16.77
2022-09-10T22:48:29.984Z,17.70
2022-09-10T22:53:33.716Z,17.67
2022-09-10T22:58:37.906Z,16.67
2022-09-10T23:03:43.700Z,21.55
2022-09-10T23:08:50.610Z,15.20
2022-09-10T23:13:57.415Z,17.48
2022-09-10T23:19:04.843Z,16.83
2022-09-10T23:24:09.271Z,16.57
2022-09-10T23:29:13.991Z,23.02
2022-09-10T23:34:20.496Z,15.95
2022-09-10T23:39:25.326Z,15.90
2022-09-10T23:44:29.305Z,14.63
2022-09-10T23:49:34.330Z,16.37
2022-09-10T23:54:38.814Z,15.43
2022-09-10T23:59:42.491Z,16.87
